Time;durP1;ratioP1;P1;durP2;ratioP2;P2;SDS_P1;SDS_P2;PMS_P1;PMS_P2;Temp;Humidity;BMP_temperature;BMP_pressure;BME280_temperature;BME280_humidity;BME280_pressure;Samples;Min_cycle;Max_cycle;Signal;HPM_P1;HPM_P2
2022/10/02 00:00:12;;;;;;;1.62;0.50;;;13.12;31.18;;;;;;2680340;76;20444;-94
2022/10/02 00:03:41;;;;;;;;;;;13.14;31.19;;;;;;2680702;76;22305;-93
2022/10/02 00:07:11;;;;;;;3.12;0.75;;;13.16;31.09;;;;;;2681680;76;21543;-94
2022/10/02 00:10:39;;;;;;;;;;;13.11;31.18;;;;;;2683546;76;22321;-92
2022/10/02 00:14:09;;;;;;;1.60;0.53;;;13.04;31.53;;;;;;2682811;76;21017;-93
2022/10/02 00:17:37;;;;;;;;;;;12.99;31.92;;;;;;2682720;76;22270;-92
2022/10/02 00:21:24;;;;;;;8.25;0.42;;;13.01;32.12;;;;;;2684850;76;20983;-93
2022/10/02 00:25:11;;;;;;;2.87;0.40;;;12.95;32.56;;;;;;2683912;76;22321;-93
2022/10/02 00:28:54;;;;;;;6.80;0.75;;;12.92;33.38;;;;;;2684381;76;22360;-93
2022/10/02 00:32:41;;;;;;;9.70;0.45;;;12.84;33.93;;;;;;2679092;76;22220;-93
2022/10/02 00:36:24;;;;;;;4.08;0.47;;;12.84;34.92;;;;;;2678338;76;22307;-93
2022/10/02 00:40:03;;;;;;;3.37;0.65;;;12.84;35.14;;;;;;2678335;76;22676;-93
2022/10/02 00:43:36;;;;;;;5.60;1.00;;;12.81;35.34;;;;;;2678187;76;22811;-93
2022/10/02 00:47:04;;;;;;;;;;;12.79;36.02;;;;;;2676960;76;22273;-92
2022/10/02 00:50:35;;;;;;;5.17;0.80;;;12.73;36.77;;;;;;2677324;76;20993;-93
2022/10/02 00:54:03;;;;;;;;;;;12.70;37.68;;;;;;2677763;76;22345;-93
2022/10/02 00:57:40;;;;;;;3.12;0.70;;;12.71;38.44;;;;;;2677147;76;21006;-93
2022/10/02 01:01:10;;;;;;;7.30;0.50;;;12.71;38.67;;;;;;2677307;76;22262;-93
2022/10/02 01:04:38;;;;;;;;;;;12.72;38.82;;;;;;2676278;76;22209;-93
2022/10/02 01:08:07;;;;;;;5.25;0.85;;;12.75;38.84;;;;;;2675970;76;20990;-93
2022/10/02 01:11:36;;;;;;;;;;;12.77;38.55;;;;;;2676295;76;22282;-91
2022/10/02 01:15:09;;;;;;;2.95;0.70;;;12.72;39.17;;;;;;2675765;76;21038;-93
2022/10/02 01:18:37;;;;;;;;;;;12.79;38.98;;;;;;2676124;76;22302;-93
2022/10/02 01:22:24;;;;;;;5.33;0.53;;;12.78;38.84;;;;;;2675455;76;21074;-92
2022/10/02 01:25:53;;;;;;;2.70;0.70;;;12.77;38.75;;;;;;2675999;76;22260;-93
2022/10/02 01:29:21;;;;;;;;;;;12.78;38.72;;;;;;2679253;76;22238;-93
2022/10/02 01:32:52;;;;;;;1.75;0.53;;;12.77;38.70;;;;;;2677240;76;21063;-92
2022/10/02 01:36:20;;;;;;;;;;;12.77;38.89;;;;;;2682712;76;22310;-92
2022/10/02 01:39:49;;;;;;;9.78;0.60;;;12.80;38.79;;;;;;2684382;76;21043;-92
2022/10/02 01:43:17;;;;;;;;;;;12.81;38.98;;;;;;2679427;76;22554;-93
2022/10/02 01:46:51;;;;;;;2.12;0.85;;;12.82;38.95;;;;;;2678290;76;21056;-92
2022/10/02 01:50:19;;;;;;;;;;;12.84;38.72;;;;;;2684147;76;22276;-93
2022/10/02 01:53:52;;;;;;;3.25;0.70;;;12.84;38.88;;;;;;2683342;76;21027;-93
2022/10/02 01:57:20;;;;;;;;;;;12.84;38.67;;;;;;2683196;76;22281;-94
2022/10/02 02:00:53;;;;;;;0.65;0.47;;;12.81;38.84;;;;;;2676357;76;21007;-92
2022/10/02 02:04:22;;;;;;;;;;;12.84;38.89;;;;;;2677582;76;22289;-93
2022/10/02 02:07:58;;;;;;;5.67;1.07;;;12.85;38.94;;;;;;2677015;76;21441;-92
2022/10/02 02:11:28;;;;;;;4.55;1.00;;;12.82;39.14;;;;;;2680319;76;22707;-93
2022/10/02 02:14:56;;;;;;;;;;;12.81;39.32;;;;;;2683962;76;22422;-93
2022/10/02 02:18:33;;;;;;;3.90;0.78;;;12.88;39.10;;;;;;2686279;76;20952;-93
2022/10/02 02:22:03;;;;;;;3.45;1.10;;;12.88;38.93;;;;;;2687199;76;22430;-91
2022/10/02 02:25:31;;;;;;;;;;;12.89;38.82;;;;;;2687373;76;22229;-92
2022/10/02 02:29:02;;;;;;;2.08;0.62;;;12.89;38.86;;;;;;2686572;76;20919;-92
2022/10/02 02:32:30;;;;;;;;;;;12.93;38.73;;;;;;2687387;76;22223;-92
2022/10/02 02:36:00;;;;;;;8.63;0.82;;;12.91;38.84;;;;;;2686731;76;20967;-93
2022/10/02 02:39:28;;;;;;;;;;;12.94;38.88;;;;;;2687639;76;22236;-93
2022/10/02 02:43:05;;;;;;;4.12;1.02;;;12.92;38.92;;;;;;2686308;76;21024;-91
2022/10/02 02:47:02;;;;;;;5.95;0.60;;;12.94;38.93;;;;;;2686003;76;22247;-93
2022/10/02 02:50:08;;;;;;;;;;;12.94;38.75;;;;;;2685976;76;22176;-93
2022/10/02 02:53:37;;;;;;;;;;;12.96;38.67;;;;;;2682580;76;22271;-93
2022/10/02 02:57:07;;;;;;;3.60;0.65;;;12.94;38.43;;;;;;2685472;76;20916;-93
2022/10/02 03:00:35;;;;;;;;;;;12.93;38.30;;;;;;2686075;76;22287;-93
2022/10/02 03:04:04;;;;;;;4.22;0.80;;;12.90;38.43;;;;;;2685895;76;20930;-93
2022/10/02 03:07:32;;;;;;;;;;;12.93;38.61;;;;;;2687042;76;22271;-93
2022/10/02 03:11:06;;;;;;;8.30;1.00;;;12.90;38.59;;;;;;2684693;76;21015;-93
2022/10/02 03:14:34;;;;;;;;;;;12.93;38.88;;;;;;2682748;76;22190;-92
2022/10/02 03:18:04;;;;;;;6.03;0.80;;;12.97;38.71;;;;;;2682308;76;21037;-92
2022/10/02 03:21:33;;;;;;;;;;;13.04;38.47;;;;;;2683419;76;22295;-92
2022/10/02 03:25:03;;;;;;;2.90;0.80;;;13.03;38.48;;;;;;2684473;76;21061;-92
2022/10/02 03:28:31;;;;;;;;;;;13.06;38.34;;;;;;2685795;76;22170;-91
2022/10/02 03:32:00;;;;;;;2.98;0.70;;;13.05;38.12;;;;;;2686257;76;21002;-92
2022/10/02 03:35:28;;;;;;;;;;;13.06;38.05;;;;;;2685631;76;22232;-93
2022/10/02 03:38:59;;;;;;;8.95;1.12;;;13.01;38.08;;;;;;2685773;76;20918;-92
2022/10/02 03:42:27;;;;;;;;;;;12.99;38.15;;;;;;2686533;76;22203;-93
2022/10/02 03:45:56;;;;;;;2.90;0.78;;;13.00;38.16;;;;;;2684861;76;21032;-94
2022/10/02 03:49:24;;;;;;;;;;;13.00;38.04;;;;;;2685238;76;22286;-93
2022/10/02 03:52:53;;;;;;;6.62;1.10;;;13.03;37.90;;;;;;2683235;76;20998;-93
2022/10/02 03:56:21;;;;;;;;;;;13.00;38.01;;;;;;2683800;76;22296;-93
2022/10/02 03:59:52;;;;;;;6.53;0.85;;;13.03;38.01;;;;;;2680919;76;20968;-93
2022/10/02 04:03:20;;;;;;;;;;;13.06;38.08;;;;;;2680056;76;22290;-93
2022/10/02 04:07:00;;;;;;;2.75;0.70;;;13.05;38.11;;;;;;2679169;76;21052;-93
2022/10/02 04:10:35;;;;;;;3.03;1.20;;;13.05;38.21;;;;;;2679237;76;22275;-93
2022/10/02 04:14:05;;;;;;;;;;;13.08;38.20;;;;;;2678292;76;22310;-92
2022/10/02 04:17:33;;;;;;;;;;;13.14;38.17;;;;;;2678755;76;22862;-93
2022/10/02 04:21:06;;;;;;;2.60;0.50;;;13.12;38.27;;;;;;2676918;76;20991;-93
2022/10/02 04:24:35;;;;;;;;;;;13.16;38.24;;;;;;2676947;76;22737;-93
2022/10/02 04:28:08;;;;;;;3.77;0.72;;;13.15;38.16;;;;;;2678524;76;21060;-93
2022/10/02 04:31:36;;;;;;;;;;;13.16;38.14;;;;;;2678037;76;22291;-93
2022/10/02 04:35:16;;;;;;;8.13;0.82;;;13.16;38.36;;;;;;2678351;76;21000;-92
2022/10/02 04:38:49;;;;;;;2.00;0.70;;;13.19;38.56;;;;;;2677428;76;22744;-93
2022/10/02 04:42:18;;;;;;;;;;;13.21;38.72;;;;;;2675903;76;22319;-92
2022/10/02 04:46:03;;;;;;;6.92;0.80;;;13.24;38.49;;;;;;2674752;76;21541;-93
2022/10/02 04:49:40;;;;;;;7.75;1.40;;;13.21;38.59;;;;;;2678184;76;22282;-93
2022/10/02 04:53:16;;;;;;;6.15;1.15;;;13.19;38.63;;;;;;2686453;76;22230;-92
2022/10/02 04:56:47;;;;;;;4.30;1.15;;;13.25;38.46;;;;;;2687027;76;22310;-92
2022/10/02 05:00:15;;;;;;;;;;;13.26;38.39;;;;;;2680438;76;22340;-93
2022/10/02 05:03:52;;;;;;;5.30;0.80;;;13.29;38.28;;;;;;2676136;76;21015;-93
2022/10/02 05:07:31;;;;;;;3.55;1.10;;;13.30;38.16;;;;;;2676188;76;22287;-93
2022/10/02 05:11:17;;;;;;;3.07;1.20;;;13.27;38.17;;;;;;2676459;76;22280;-93
2022/10/02 05:14:47;;;;;;;4.95;1.02;;;13.27;38.10;;;;;;2676605;76;22311;-93
2022/10/02 05:18:16;;;;;;;;;;;13.23;38.20;;;;;;2680582;76;22296;-93
2022/10/02 05:21:58;;;;;;;3.70;0.95;;;13.23;38.37;;;;;;2679850;76;20977;-93
2022/10/02 05:25:41;;;;;;;5.85;1.05;;;13.19;38.66;;;;;;2680061;76;22287;-94
2022/10/02 05:29:15;;;;;;;3.42;0.85;;;13.23;38.68;;;;;;2682092;76;22284;-93
2022/10/02 05:32:52;;;;;;;6.72;1.00;;;13.22;38.69;;;;;;2682530;76;22392;-92
2022/10/02 05:36:22;;;;;;;4.30;1.10;;;13.21;38.91;;;;;;2683307;76;22274;-94
2022/10/02 05:39:51;;;;;;;;;;;13.21;39.20;;;;;;2684233;76;22154;-93
2022/10/02 05:43:24;;;;;;;1.95;0.90;;;13.25;39.28;;;;;;2683105;76;20997;-93
2022/10/02 05:46:52;;;;;;;;;;;13.23;39.39;;;;;;2683256;76;22267;-92
2022/10/02 05:50:25;;;;;;;2.25;0.50;;;13.15;39.76;;;;;;2684854;76;21028;-93
2022/10/02 05:53:55;;;;;;;;;;;13.08;39.36;;;;;;2684947;76;22142;-92
2022/10/02 05:57:25;;;;;;;;;;;13.01;39.62;;;;;;2686168;76;20358;-92
2022/10/02 06:00:55;;;;;;;1.65;0.40;;;12.94;39.94;;;;;;2686091;76;21121;-92
2022/10/02 06:04:23;;;;;;;;;;;12.86;40.65;;;;;;2686372;76;22209;-90
2022/10/02 06:07:54;;;;;;;4.67;1.02;;;12.84;41.65;;;;;;2686399;76;20948;-91
2022/10/02 06:11:22;;;;;;;;;;;12.91;42.03;;;;;;2687143;76;22209;-92
2022/10/02 06:14:53;;;;;;;7.92;0.90;;;12.92;42.41;;;;;;2686445;76;20907;-93
2022/10/02 06:18:21;;;;;;;;;;;12.82;41.58;;;;;;2686934;76;22235;-92
2022/10/02 06:21:55;;;;;;;1.92;0.50;;;12.71;40.97;;;;;;2686363;76;20979;-92
2022/10/02 06:25:30;;;;;;;16.30;0.80;;;12.59;40.12;;;;;;2686746;76;22209;-93
2022/10/02 06:29:01;;;;;;;;;;;12.51;40.46;;;;;;2686907;76;22236;-93
2022/10/02 06:32:31;;;;;;;;;;;12.49;40.93;;;;;;2686471;76;20321;-94
2022/10/02 06:36:20;;;;;;;10.18;1.10;;;12.49;41.42;;;;;;2685654;76;20917;-95
2022/10/02 06:39:53;;;;;;;5.05;0.70;;;12.51;41.65;;;;;;2686354;76;22228;-93
2022/10/02 06:43:21;;;;;;;;;;;12.57;42.07;;;;;;2686796;76;22219;-92
2022/10/02 06:46:57;;;;;;;10.05;0.82;;;12.73;41.74;;;;;;2686195;76;20957;-93
2022/10/02 06:50:43;;;;;;;11.80;1.50;;;12.86;41.34;;;;;;2686291;76;22169;-94
2022/10/02 06:54:17;;;;;;;6.33;0.75;;;13.08;40.84;;;;;;2684949;76;22259;-94
2022/10/02 06:57:47;;;;;;;;;;;13.24;40.43;;;;;;2686444;76;22079;-94
2022/10/02 07:01:18;;;;;;;;;;;13.40;40.01;;;;;;2686679;76;20323;-93
2022/10/02 07:04:49;;;;;;;5.45;1.02;;;13.54;39.50;;;;;;2685930;76;20925;-93
2022/10/02 07:08:17;;;;;;;;;;;13.71;39.37;;;;;;2687100;76;22408;-93
2022/10/02 07:11:48;;;;;;;8.48;1.50;;;13.83;39.04;;;;;;2686463;76;20898;-93
2022/10/02 07:15:18;;;;;;;;;;;13.94;39.04;;;;;;2686595;76;22235;-93
2022/10/02 07:18:48;;;;;;;;;;;14.08;38.64;;;;;;2685633;76;20369;-93
2022/10/02 07:22:19;;;;;;;7.45;1.62;;;14.25;38.24;;;;;;2686317;76;20914;-93
2022/10/02 07:25:48;;;;;;;;;;;14.27;37.96;;;;;;2686967;76;22202;-92
2022/10/02 07:29:36;;;;;;;3.90;1.20;;;14.33;37.79;;;;;;2686011;76;20941;-95
2022/10/02 07:33:22;;;;;;;3.05;1.35;;;14.41;37.57;;;;;;2686031;76;22203;-95
2022/10/02 07:36:50;;;;;;;9.70;1.67;;;14.60;37.52;;;;;;2676587;76;22369;-94
2022/10/02 07:40:18;;;;;;;;;;;14.81;36.75;;;;;;2674022;76;22251;-93
2022/10/02 07:44:01;;;;;;;5.50;1.65;;;15.00;35.85;;;;;;2673328;76;20990;-92
2022/10/02 07:47:35;;;;;;;8.08;1.70;;;15.17;35.61;;;;;;2674532;76;22304;-94
2022/10/02 07:51:45;;;;;;;;;;;15.42;35.50;;;;;;2678383;76;22271;-93
2022/10/02 07:54:37;;;;;;;;;;;15.45;34.77;;;;;;2678050;76;20401;-95
2022/10/02 07:58:10;;;;;;;5.05;1.40;;;15.41;35.06;;;;;;2679256;76;21049;-93
2022/10/02 08:01:39;;;;;;;;;;;15.33;35.33;;;;;;2679762;76;22300;-94
2022/10/02 08:05:07;;;;;;;;;;;15.33;35.69;;;;;;2680116;76;21015;-93
2022/10/02 08:08:47;;;;;;;4.92;1.40;;;15.51;35.78;;;;;;2679801;76;21077;-93
2022/10/02 08:12:21;;;;;;;6.45;1.55;;;15.68;34.84;;;;;;2679121;76;22331;-93
2022/10/02 08:15:49;;;;;;;;;;;15.65;34.92;;;;;;2677619;76;22321;-93
2022/10/02 08:19:31;;;;;;;16.75;5.15;;;15.71;34.88;;;;;;2678923;76;21026;-93
2022/10/02 08:23:08;;;;;;;9.10;1.82;;;15.85;34.60;;;;;;2679583;76;22306;-94
2022/10/02 08:26:41;;;;;;;6.75;1.50;;;16.02;33.94;;;;;;2680007;76;22333;-94
2022/10/02 08:30:08;;;;;;;;;;;16.08;33.98;;;;;;2680219;76;22263;-93
2022/10/02 08:33:38;;;;;;;6.53;1.35;;;16.10;33.68;;;;;;2680623;76;21032;-93
2022/10/02 08:37:06;;;;;;;;;;;16.17;33.62;;;;;;2680164;76;22222;-94
2022/10/02 08:40:55;;;;;;;5.25;1.45;;;16.15;34.09;;;;;;2679383;76;20966;-93
2022/10/02 08:44:42;;;;;;;6.10;1.32;;;16.16;34.37;;;;;;2680041;76;22253;-93
2022/10/02 08:48:21;;;;;;;3.02;0.98;;;16.20;34.05;;;;;;2679744;76;22274;-93
2022/10/02 08:51:57;;;;;;;2.10;0.90;;;16.17;34.63;;;;;;2681083;76;22263;-94
2022/10/02 08:55:56;;;;;;;8.10;1.40;;;16.16;34.76;;;;;;2678295;76;22336;-93
2022/10/02 09:03:49;;;;;;;4.97;1.32;;;16.00;35.26;;;;;;2676252;76;22822;-93
2022/10/02 09:07:38;;;;;;;7.95;1.30;;;15.92;35.63;;;;;;2677085;76;22354;-92
2022/10/02 09:11:20;;;;;;;4.53;1.00;;;15.85;35.83;;;;;;2674999;76;22266;-92
2022/10/02 09:15:12;;;;;;;13.13;1.52;;;15.80;36.53;;;;;;2675251;76;22328;-93
2022/10/02 09:19:09;;;;;;;;;;;;;;;;;;;;;
2022/10/02 09:22:38;;;;;;;4.97;1.20;;;15.97;36.20;;;;;;2675085;76;22723;-92
2022/10/02 09:26:25;;;;;;;7.00;1.50;;;16.07;35.90;;;;;;2678494;76;22379;-92
2022/10/02 09:29:54;;;;;;;;;;;16.22;35.99;;;;;;2678624;76;22238;-93
2022/10/02 09:33:41;;;;;;;5.75;1.67;;;16.34;35.48;;;;;;2680886;76;20322;-93
2022/10/02 09:37:31;;;;;;;5.92;1.90;;;16.36;35.02;;;;;;2683514;76;22188;-93
2022/10/02 09:41:10;;;;;;;5.97;2.00;;;16.41;35.47;;;;;;2681263;76;22320;-94
2022/10/02 09:45:22;;;;;;;;;;;;;;;;;;;;;
2022/10/02 09:49:02;;;;;;;9.93;2.40;;;16.55;34.99;;;;;;2674747;76;22402;-92
2022/10/02 09:52:43;;;;;;;;;;;;;;;;;;;;;
2022/10/02 10:00:50;;;;;;;4.70;1.90;;;17.24;32.74;;;;;;2680478;76;22293;-93
2022/10/02 10:04:34;;;;;;;7.62;1.65;;;17.36;31.84;;;;;;2681271;76;22581;-93
2022/10/02 10:08:09;;;;;;;;;;;17.28;31.82;;;;;;2681043;76;22325;-92
2022/10/02 10:12:12;;;;;;;6.43;1.57;;;17.24;31.81;;;;;;2678426;76;22216;-92
2022/10/02 10:16:06;;;;;;;;;;;17.50;31.96;;;;;;2681784;76;22124;-95
2022/10/02 10:20:40;;;;;;;8.08;2.67;;;17.91;30.64;;;;;;2674597;76;21032;-93
2022/10/02 10:24:16;;;;;;;3.55;1.25;;;18.20;28.67;;;;;;2675375;76;22342;-93
2022/10/02 10:27:52;;;;;;;;;;;18.55;28.71;;;;;;2678000;76;22270;-92
2022/10/02 10:31:21;;;;;;;;;;;19.09;27.51;;;;;;2674821;76;20913;-93
2022/10/02 10:39:02;;;;;;;3.75;1.02;;;20.45;24.35;;;;;;2669985;76;22254;-94
2022/10/02 10:42:49;;;;;;;;;;;;;;;;;;;;;
2022/10/02 10:46:42;;;;;;;7.20;1.20;;;21.03;22.40;;;;;;2673841;76;22433;-93
2022/10/02 10:50:12;;;;;;;3.30;1.00;;;20.95;19.73;;;;;;2680590;76;22460;-94
2022/10/02 10:53:41;;;;;;;;;;;21.30;19.86;;;;;;2676824;76;22237;-94
2022/10/02 10:57:24;;;;;;;4.03;1.10;;;21.55;20.38;;;;;;2678309;76;21004;-95
2022/10/02 11:00:55;;;;;;;5.25;1.45;;;21.88;20.12;;;;;;2680384;76;22286;-94
2022/10/02 11:04:26;;;;;;;;;;;21.65;19.68;;;;;;2679856;76;22310;-95
2022/10/02 11:08:03;;;;;;;2.50;0.88;;;21.28;18.77;;;;;;2677945;76;21461;-94
2022/10/02 11:11:58;;;;;;;6.42;1.22;;;21.49;19.72;;;;;;2678589;76;22309;-95
2022/10/02 11:15:48;;;;;;;5.45;1.02;;;21.72;20.37;;;;;;2676972;76;22489;-94
2022/10/02 11:19:33;;;;;;;;;;;22.09;19.96;;;;;;2683395;76;22133;-95
2022/10/02 11:23:31;;;;;;;1.55;0.68;;;22.38;19.69;;;;;;2685421;76;20403;-94
2022/10/02 11:27:20;;;;;;;2.00;0.80;;;22.10;18.89;;;;;;2679507;76;22278;-95
2022/10/02 11:35:01;;;;;;;;;;;22.02;15.96;;;;;;2678994;76;20411;-95
2022/10/02 11:38:52;;;;;;;;;;;;;;;;;;;;;
2022/10/02 11:43:21;;;;;;;0.20;0.20;;;22.53;16.25;;;;;;2685137;76;20891;-94
2022/10/02 11:47:28;;;;;;;0.35;0.33;;;21.81;13.91;;;;;;2684815;76;22462;-96
2022/10/02 11:51:26;;;;;;;0.23;0.20;;;21.04;12.98;;;;;;2683639;76;22476;-95
2022/10/02 11:54:57;;;;;;;0.20;0.20;;;20.86;14.29;;;;;;2679877;76;22267;-95
2022/10/02 11:58:49;;;;;;;0.20;0.20;;;20.66;15.43;;;;;;2685057;76;22185;-95
2022/10/02 12:02:31;;;;;;;0.30;0.30;;;20.58;16.29;;;;;;2675127;76;22334;-93
2022/10/02 12:06:01;;;;;;;0.70;0.30;;;20.63;14.87;;;;;;2673004;76;22323;-93
2022/10/02 12:09:31;;;;;;;;;;;21.02;13.59;;;;;;2677076;76;22279;-94
2022/10/02 12:13:20;;;;;;;0.78;0.23;;;21.58;13.42;;;;;;2684675;76;20928;-96
2022/10/02 12:36:08;;;;;;;0.78;0.13;;;22.64;6.57;;;;;;2683201;76;22333;-95
2022/10/02 12:39:58;;;;;;;0.47;0.30;;;22.41;6.67;;;;;;2684080;76;22280;-94
2022/10/02 13:07:15;;;;;;;;;;;17.33;17.27;;;;;;2672976;76;22493;-91
2022/10/02 13:11:02;;;;;;;2.05;1.10;;;16.40;23.62;;;;;;2671074;76;20480;-90
2022/10/02 13:14:35;;;;;;;2.52;1.02;;;15.90;27.02;;;;;;2671780;76;22954;-91
2022/10/02 13:18:04;;;;;;;;;;;15.83;28.48;;;;;;2670904;76;22777;-91
2022/10/02 13:21:45;;;;;;;1.00;0.70;;;15.69;29.19;;;;;;2669745;76;20977;-90
2022/10/02 13:25:33;;;;;;;1.52;0.90;;;15.65;29.48;;;;;;2669649;76;22546;-90
2022/10/02 13:29:04;;;;;;;1.60;0.53;;;15.92;29.36;;;;;;2671387;76;22219;-91
2022/10/02 13:32:39;;;;;;;;;;;16.12;28.14;;;;;;2671079;76;22285;-89
2022/10/02 13:36:10;;;;;;;;;;;16.33;27.08;;;;;;2673067;76;20422;-92
2022/10/02 13:39:39;;;;;;;;;;;16.42;27.47;;;;;;2668780;76;20518;-92
2022/10/02 13:43:28;;;;;;;1.67;0.50;;;16.01;27.80;;;;;;2670912;76;21023;-91
2022/10/02 13:47:21;;;;;;;0.68;0.40;;;16.18;27.92;;;;;;2671730;76;22361;-92
2022/10/02 13:51:04;;;;;;;0.80;0.50;;;16.26;27.07;;;;;;2673119;76;22302;-90
2022/10/02 13:54:37;;;;;;;1.17;0.85;;;16.15;27.83;;;;;;2673572;76;22279;-91
2022/10/02 13:58:05;;;;;;;;;;;15.77;28.08;;;;;;2671887;76;22354;-90
2022/10/02 14:01:51;;;;;;;0.72;0.37;;;15.44;30.83;;;;;;2671580;76;20990;-91
2022/10/02 14:05:20;;;;;;;0.60;0.30;;;15.06;31.77;;;;;;2672236;76;22306;-92
2022/10/02 14:08:51;;;;;;;;;;;14.82;32.03;;;;;;2672561;76;22331;-92
2022/10/02 14:12:21;;;;;;;;;;;14.69;33.82;;;;;;2672918;76;20444;-92
2022/10/02 14:15:55;;;;;;;3.85;0.82;;;14.73;33.41;;;;;;2674954;76;21026;-91
2022/10/02 14:23:39;;;;;;;2.15;0.30;;;14.68;33.19;;;;;;2675305;76;21533;-92
2022/10/02 15:08:33;;;;;;;5.67;1.00;;;14.06;41.58;;;;;;2685077;76;22230;-95
2022/10/02 15:12:17;;;;;;;6.10;0.90;;;14.30;41.45;;;;;;2685813;76;22080;-96
2022/10/02 16:20:57;;;;;;;;;;;;;;;;;;;;;
2022/10/02 17:36:20;;;;;;;3.70;1.80;;;13.65;43.19;;;;;;2674529;75;22183;-93
2022/10/02 17:51:35;;;;;;;5.75;1.80;;;13.73;42.69;;;;;;2663871;76;22527;-92
2022/10/02 18:55:41;;;;;;;43.00;13.15;;;13.49;44.50;;;;;;2676076;76;22317;-91
2022/10/02 19:02:46;;;;;;;93.80;25.52;;;13.48;43.73;;;;;;2667094;76;22925;-92
2022/10/02 19:06:15;;;;;;;;;;;13.49;43.58;;;;;;2675153;76;22357;-92
2022/10/02 20:42:46;;;;;;;4.70;2.05;;;12.92;46.36;;;;;;2669173;76;22333;-93
2022/10/02 20:46:29;;;;;;;2.55;1.45;;;12.91;46.38;;;;;;2667998;76;22484;-92
2022/10/02 20:50:14;;;;;;;7.00;2.00;;;12.88;46.15;;;;;;2667921;76;22927;-92
2022/10/02 20:53:57;;;;;;;5.00;1.25;;;12.74;46.57;;;;;;2670009;76;22387;-92
2022/10/02 20:57:28;;;;;;;6.30;1.90;;;12.74;47.13;;;;;;2671636;76;22312;-93
2022/10/02 21:00:56;;;;;;;;;;;12.79;46.95;;;;;;2671183;76;22335;-91
2022/10/02 21:04:39;;;;;;;2.37;1.50;;;12.75;46.51;;;;;;2668606;76;21193;-91
2022/10/02 21:08:28;;;;;;;4.03;1.62;;;12.72;46.57;;;;;;2669654;76;22725;-93
2022/10/02 21:12:07;;;;;;;2.77;1.90;;;12.72;46.51;;;;;;2669446;76;22380;-91
2022/10/02 21:15:50;;;;;;;3.90;1.90;;;12.70;46.18;;;;;;2670184;76;22911;-91
2022/10/02 21:19:30;;;;;;;2.77;1.37;;;12.63;45.84;;;;;;2669615;76;23179;-92
2022/10/02 21:23:19;;;;;;;4.23;2.27;;;12.60;45.48;;;;;;2670089;76;22362;-95
2022/10/02 21:26:49;;;;;;;5.95;2.33;;;12.53;45.68;;;;;;2670835;76;22206;-91
2022/10/02 21:30:17;;;;;;;;;;;12.55;45.97;;;;;;2672033;76;22608;-91
2022/10/02 21:34:00;;;;;;;2.55;1.70;;;12.55;45.72;;;;;;2670759;76;21026;-91
2022/10/02 21:37:34;;;;;;;5.53;1.80;;;12.56;46.07;;;;;;2671151;76;22389;-91
2022/10/02 21:41:03;;;;;;;;;;;12.60;46.36;;;;;;2672532;76;22310;-92
2022/10/02 21:44:32;;;;;;;;;;;12.64;46.22;;;;;;2672683;76;21107;-91
2022/10/02 21:48:21;;;;;;;3.55;1.02;;;12.60;46.47;;;;;;2671954;76;20380;-92
2022/10/02 21:52:00;;;;;;;2.52;1.55;;;12.61;46.95;;;;;;2671562;76;22416;-91
2022/10/02 21:55:38;;;;;;;2.00;1.10;;;12.65;46.85;;;;;;2672003;76;22414;-92
2022/10/02 21:59:06;;;;;;;;;;;12.67;46.74;;;;;;2672738;76;22215;-91
2022/10/02 22:02:35;;;;;;;;;;;12.72;46.80;;;;;;2671391;76;22270;-91
2022/10/02 22:06:17;;;;;;;2.25;1.10;;;12.75;46.53;;;;;;2671798;76;21246;-93
2022/10/02 22:10:18;;;;;;;1.75;1.05;;;12.74;46.58;;;;;;2671517;76;22442;-92
2022/10/02 22:13:44;;;;;;;3.98;1.50;;;12.80;46.68;;;;;;2671239;76;22242;-91
2022/10/02 22:17:12;;;;;;;;;;;12.81;46.29;;;;;;2671643;76;23015;-92
2022/10/02 22:20:40;;;;;;;;;;;12.79;45.89;;;;;;2672128;76;22882;-91
2022/10/02 22:24:17;;;;;;;7.00;1.77;;;12.71;45.73;;;;;;2671771;76;21589;-92
2022/10/02 22:27:56;;;;;;;4.15;1.85;;;12.67;46.09;;;;;;2672233;76;22430;-91
2022/10/02 22:31:20;;;;;;;;;;;12.66;46.41;;;;;;2672477;76;22395;-91
2022/10/02 22:34:49;;;;;;;;;;;12.61;45.67;;;;;;2672544;76;22417;-91
2022/10/02 22:38:34;;;;;;;3.72;1.82;;;12.47;44.73;;;;;;2672030;76;21150;-90
2022/10/02 22:42:14;;;;;;;4.85;1.55;;;12.32;43.42;;;;;;2671784;76;22337;-91
2022/10/02 22:45:43;;;;;;;6.90;2.00;;;12.21;42.69;;;;;;2671824;76;22278;-91
2022/10/02 22:49:28;;;;;;;;;;;12.06;42.30;;;;;;2672258;76;22966;-91
2022/10/02 22:52:42;;;;;;;;;;;12.08;42.30;;;;;;2671632;76;20506;-90
2022/10/02 22:56:18;;;;;;;3.22;1.40;;;12.18;42.71;;;;;;2671640;76;21653;-92
2022/10/02 22:59:58;;;;;;;6.85;2.40;;;12.28;43.79;;;;;;2672083;76;22402;-92
2022/10/02 23:03:37;;;;;;;10.32;2.65;;;12.34;43.83;;;;;;2672535;76;22487;-91
2022/10/02 23:07:06;;;;;;;;;;;12.27;43.77;;;;;;2672658;76;22265;-94
2022/10/02 23:10:34;;;;;;;;;;;12.21;43.32;;;;;;2672599;76;21125;-92
2022/10/02 23:14:16;;;;;;;10.03;2.47;;;12.22;43.42;;;;;;2672202;76;20519;-92
2022/10/02 23:18:02;;;;;;;5.35;2.30;;;12.17;43.44;;;;;;2672282;76;22163;-92
2022/10/02 23:21:36;;;;;;;7.08;2.87;;;12.16;42.98;;;;;;2671828;76;22356;-92
2022/10/02 23:25:04;;;;;;;;;;;12.16;43.68;;;;;;2672966;76;22207;-92
2022/10/02 23:28:43;;;;;;;8.28;2.70;;;12.22;44.09;;;;;;2670226;76;21133;-93
2022/10/02 23:32:17;;;;;;;16.90;5.70;;;12.19;44.64;;;;;;2671719;76;22336;-92
2022/10/02 23:35:46;;;;;;;;;;;12.16;44.74;;;;;;2671888;76;22346;-92
2022/10/02 23:39:14;;;;;;;;;;;12.16;44.67;;;;;;2672517;76;20411;-92
2022/10/02 23:42:45;;;;;;;15.40;6.10;;;12.10;43.75;;;;;;2671302;76;21016;-91
2022/10/02 23:46:13;;;;;;;;;;;12.01;42.01;;;;;;2672544;76;22355;-91
2022/10/02 23:49:44;;;;;;;9.78;4.30;;;11.88;39.62;;;;;;2672376;76;21118;-91
2022/10/02 23:53:12;;;;;;;;;;;11.72;39.83;;;;;;2672860;76;22778;-93
2022/10/02 23:56:45;;;;;;;11.18;3.60;;;11.64;38.59;;;;;;2671376;76;21181;-92
